sensor_id;sensor_type;location;lat;lon;timestamp;pressure;altitude;pressure_sealevel;temperature;humidity
66385;BME280;53426;55.872;37.462;2024-01-30T00:01:28;100151.66;;;-0.23;78.23
66385;BME280;53426;55.872;37.462;2024-01-30T00:03:54;100164.19;;;-0.08;78.21
66385;BME280;53426;55.872;37.462;2024-01-30T00:06:20;100251.00;;;0.47;78.15
66385;BME280;53426;55.872;37.462;2024-01-30T00:08:47;100265.78;;;0.47;78.30
66385;BME280;53426;55.872;37.462;2024-01-30T00:11:16;100263.22;;;0.45;78.23
66385;BME280;53426;55.872;37.462;2024-01-30T00:14:07;100263.88;;;0.52;78.38
66385;BME280;53426;55.872;37.462;2024-01-30T00:16:33;100257.97;;;0.47;78.49
66385;BME280;53426;55.872;37.462;2024-01-30T00:18:59;100269.38;;;0.43;78.24
66385;BME280;53426;55.872;37.462;2024-01-30T00:21:25;100264.19;;;0.43;78.15
66385;BME280;53426;55.872;37.462;2024-01-30T00:23:51;100137.72;;;-0.50;78.41
66385;BME280;53426;55.872;37.462;2024-01-30T00:26:17;100224.91;;;0.21;78.39
66385;BME280;53426;55.872;37.462;2024-01-30T00:28:43;100210.75;;;0.29;78.48
66385;BME280;53426;55.872;37.462;2024-01-30T00:31:09;100239.72;;;0.47;78.45
66385;BME280;53426;55.872;37.462;2024-01-30T00:33:39;100240.47;;;0.50;78.39
66385;BME280;53426;55.872;37.462;2024-01-30T00:39:14;100134.84;;;-0.40;78.46
66385;BME280;53426;55.872;37.462;2024-01-30T00:41:41;100152.06;;;-0.09;78.24
66385;BME280;53426;55.872;37.462;2024-01-30T00:44:07;100237.22;;;0.44;78.21
66385;BME280;53426;55.872;37.462;2024-01-30T00:46:34;100052.59;;;-0.74;78.36
66385;BME280;53426;55.872;37.462;2024-01-30T00:49:00;100210.91;;;0.25;77.95
66385;BME280;53426;55.872;37.462;2024-01-30T00:51:26;100246.84;;;0.41;78.25
66385;BME280;53426;55.872;37.462;2024-01-30T00:54:00;100154.00;;;-0.15;78.43
66385;BME280;53426;55.872;37.462;2024-01-30T00:56:26;100228.97;;;0.29;78.50
66385;BME280;53426;55.872;37.462;2024-01-30T00:58:52;100241.47;;;0.46;78.64
66385;BME280;53426;55.872;37.462;2024-01-30T01:01:18;100110.34;;;-0.33;78.56
66385;BME280;53426;55.872;37.462;2024-01-30T01:03:44;100177.44;;;0.13;78.58
66385;BME280;53426;55.872;37.462;2024-01-30T01:06:10;100173.59;;;0.24;78.38
66385;BME280;53426;55.872;37.462;2024-01-30T01:08:36;100238.78;;;0.49;78.48
66385;BME280;53426;55.872;37.462;2024-01-30T01:11:02;100241.31;;;0.51;78.63
66385;BME280;53426;55.872;37.462;2024-01-30T01:13:29;100122.72;;;-0.14;78.37
66385;BME280;53426;55.872;37.462;2024-01-30T01:15:55;100126.78;;;-0.05;78.65
66385;BME280;53426;55.872;37.462;2024-01-30T01:18:21;100249.75;;;0.59;78.39
66385;BME280;53426;55.872;37.462;2024-01-30T01:20:47;100245.59;;;0.53;78.33
66385;BME280;53426;55.872;37.462;2024-01-30T01:23:12;100229.00;;;0.56;78.12
66385;BME280;53426;55.872;37.462;2024-01-30T01:25:38;100225.47;;;0.58;78.41
66385;BME280;53426;55.872;37.462;2024-01-30T01:30:49;100066.81;;;-0.28;78.32
66385;BME280;53426;55.872;37.462;2024-01-30T01:33:15;100205.47;;;0.59;78.29
66385;BME280;53426;55.872;37.462;2024-01-30T01:35:41;100212.38;;;0.60;78.26
66385;BME280;53426;55.872;37.462;2024-01-30T01:38:06;100208.81;;;0.62;78.16
66385;BME280;53426;55.872;37.462;2024-01-30T01:40:32;100060.50;;;-0.21;78.36
66385;BME280;53426;55.872;37.462;2024-01-30T01:42:59;100188.31;;;0.52;78.20
66385;BME280;53426;55.872;37.462;2024-01-30T01:45:28;100175.81;;;0.36;78.35
66385;BME280;53426;55.872;37.462;2024-01-30T01:48:15;100121.31;;;0.04;78.22
66385;BME280;53426;55.872;37.462;2024-01-30T01:50:42;100215.00;;;0.60;78.51
66385;BME280;53426;55.872;37.462;2024-01-30T01:53:09;100174.63;;;0.45;78.27
66385;BME280;53426;55.872;37.462;2024-01-30T01:55:35;100207.19;;;0.60;78.67
66385;BME280;53426;55.872;37.462;2024-01-30T01:58:01;100196.75;;;0.60;78.49
66385;BME280;53426;55.872;37.462;2024-01-30T02:00:28;100077.13;;;-0.25;78.67
66385;BME280;53426;55.872;37.462;2024-01-30T02:02:56;100097.22;;;-0.03;78.49
66385;BME280;53426;55.872;37.462;2024-01-30T02:05:23;100180.69;;;0.46;78.90
66385;BME280;53426;55.872;37.462;2024-01-30T02:07:52;100200.19;;;0.60;78.58
66385;BME280;53426;55.872;37.462;2024-01-30T02:10:18;100172.16;;;0.42;78.49
66385;BME280;53426;55.872;37.462;2024-01-30T02:12:44;100154.63;;;0.21;78.82
66385;BME280;53426;55.872;37.462;2024-01-30T02:15:13;100194.34;;;0.54;78.60
66385;BME280;53426;55.872;37.462;2024-01-30T02:17:41;100116.78;;;0.09;78.81
66385;BME280;53426;55.872;37.462;2024-01-30T02:20:08;100181.47;;;0.49;79.05
66385;BME280;53426;55.872;37.462;2024-01-30T02:22:36;100200.13;;;0.62;78.50
66385;BME280;53426;55.872;37.462;2024-01-30T02:25:03;100213.94;;;0.65;79.25
66385;BME280;53426;55.872;37.462;2024-01-30T02:27:30;100216.44;;;0.68;78.85
66385;BME280;53426;55.872;37.462;2024-01-30T02:30:21;100191.88;;;0.75;78.71
66385;BME280;53426;55.872;37.462;2024-01-30T02:32:47;100177.53;;;0.62;78.50
66385;BME280;53426;55.872;37.462;2024-01-30T02:35:14;100208.47;;;0.73;78.68
66385;BME280;53426;55.872;37.462;2024-01-30T02:37:40;100056.78;;;-0.13;78.66
66385;BME280;53426;55.872;37.462;2024-01-30T02:43:57;100228.94;;;0.83;78.51
66385;BME280;53426;55.872;37.462;2024-01-30T02:46:23;100044.34;;;-0.05;78.48
66385;BME280;53426;55.872;37.462;2024-01-30T02:48:56;100221.94;;;0.86;78.42
66385;BME280;53426;55.872;37.462;2024-01-30T02:51:22;100214.91;;;0.88;78.39
66385;BME280;53426;55.872;37.462;2024-01-30T02:53:48;100079.03;;;0.22;78.30
66385;BME280;53426;55.872;37.462;2024-01-30T02:56:14;100203.00;;;0.80;78.28
66385;BME280;53426;55.872;37.462;2024-01-30T02:58:40;100089.44;;;0.22;78.07
66385;BME280;53426;55.872;37.462;2024-01-30T03:01:06;100216.06;;;0.79;78.74
66385;BME280;53426;55.872;37.462;2024-01-30T03:03:33;100022.63;;;-0.30;78.41
66385;BME280;53426;55.872;37.462;2024-01-30T03:06:02;100138.09;;;0.48;78.48
66385;BME280;53426;55.872;37.462;2024-01-30T03:08:28;100211.75;;;0.78;78.77
66385;BME280;53426;55.872;37.462;2024-01-30T03:10:54;100087.75;;;0.21;78.13
66385;BME280;53426;55.872;37.462;2024-01-30T03:13:21;100214.56;;;0.98;78.31
66385;BME280;53426;55.872;37.462;2024-01-30T03:15:49;100178.09;;;0.72;78.58
66385;BME280;53426;55.872;37.462;2024-01-30T03:18:15;100222.28;;;1.01;78.29
66385;BME280;53426;55.872;37.462;2024-01-30T03:20:41;100151.69;;;0.56;78.33
66385;BME280;53426;55.872;37.462;2024-01-30T03:23:08;100067.63;;;0.00;78.03
66385;BME280;53426;55.872;37.462;2024-01-30T03:25:34;100225.44;;;1.09;78.05
66385;BME280;53426;55.872;37.462;2024-01-30T03:28:00;100218.34;;;1.14;78.05
66385;BME280;53426;55.872;37.462;2024-01-30T03:30:26;100172.25;;;0.90;77.98
66385;BME280;53426;55.872;37.462;2024-01-30T03:32:52;100217.50;;;1.14;78.30
66385;BME280;53426;55.872;37.462;2024-01-30T03:35:19;100210.44;;;1.16;78.06
66385;BME280;53426;55.872;37.462;2024-01-30T03:37:45;100217.22;;;1.21;78.03
66385;BME280;53426;55.872;37.462;2024-01-30T03:40:11;100234.63;;;1.21;78.07
66385;BME280;53426;55.872;37.462;2024-01-30T03:42:37;100227.72;;;1.20;77.70
66385;BME280;53426;55.872;37.462;2024-01-30T03:45:05;100143.50;;;0.67;77.55
66385;BME280;53426;55.872;37.462;2024-01-30T03:47:32;100177.34;;;0.93;77.76
66385;BME280;53426;55.872;37.462;2024-01-30T03:49:59;100231.16;;;1.20;77.61
66385;BME280;53426;55.872;37.462;2024-01-30T03:52:25;100216.91;;;1.06;77.71
66385;BME280;53426;55.872;37.462;2024-01-30T03:54:51;100172.78;;;0.75;78.10
66385;BME280;53426;55.872;37.462;2024-01-30T03:57:17;100217.63;;;1.09;77.83
66385;BME280;53426;55.872;37.462;2024-01-30T03:59:43;100191.94;;;0.99;78.08
66385;BME280;53426;55.872;37.462;2024-01-30T04:02:12;100242.41;;;1.22;78.04
66385;BME280;53426;55.872;37.462;2024-01-30T04:04:38;100240.75;;;1.20;78.25
66385;BME280;53426;55.872;37.462;2024-01-30T04:07:04;100235.38;;;1.24;78.19
66385;BME280;53426;55.872;37.462;2024-01-30T04:09:31;100185.66;;;1.04;78.02
66385;BME280;53426;55.872;37.462;2024-01-30T04:12:21;100252.56;;;1.30;77.61
66385;BME280;53426;55.872;37.462;2024-01-30T04:14:47;100154.53;;;0.75;77.73
66385;BME280;53426;55.872;37.462;2024-01-30T04:17:13;100257.16;;;1.23;77.78
66385;BME280;53426;55.872;37.462;2024-01-30T04:19:40;100215.03;;;1.09;78.25
66385;BME280;53426;55.872;37.462;2024-01-30T04:22:09;100127.22;;;0.60;77.97
66385;BME280;53426;55.872;37.462;2024-01-30T04:24:35;100235.69;;;1.15;78.28
66385;BME280;53426;55.872;37.462;2024-01-30T04:27:01;100206.28;;;1.10;78.44
66385;BME280;53426;55.872;37.462;2024-01-30T04:29:29;100190.78;;;1.07;78.26
66385;BME280;53426;55.872;37.462;2024-01-30T04:31:55;100156.94;;;0.81;78.51
66385;BME280;53426;55.872;37.462;2024-01-30T04:34:21;100149.25;;;0.76;78.26
66385;BME280;53426;55.872;37.462;2024-01-30T04:36:47;100236.44;;;1.19;78.72
66385;BME280;53426;55.872;37.462;2024-01-30T04:39:13;100241.53;;;1.22;78.41
66385;BME280;53426;55.872;37.462;2024-01-30T04:41:39;100246.66;;;1.25;78.56
66385;BME280;53426;55.872;37.462;2024-01-30T04:44:05;100237.06;;;1.25;78.60
66385;BME280;53426;55.872;37.462;2024-01-30T04:46:32;100196.19;;;1.01;78.44
66385;BME280;53426;55.872;37.462;2024-01-30T04:49:01;100236.22;;;1.25;78.65
66385;BME280;53426;55.872;37.462;2024-01-30T04:51:27;100229.22;;;1.25;78.70
66385;BME280;53426;55.872;37.462;2024-01-30T04:53:53;100230.78;;;1.31;78.69
66385;BME280;53426;55.872;37.462;2024-01-30T04:56:19;100193.16;;;1.13;78.74
66385;BME280;53426;55.872;37.462;2024-01-30T04:58:45;100093.44;;;0.59;78.76
66385;BME280;53426;55.872;37.462;2024-01-30T05:01:17;100038.06;;;0.27;78.19
66385;BME280;53426;55.872;37.462;2024-01-30T05:03:43;100229.81;;;1.34;78.64
66385;BME280;53426;55.872;37.462;2024-01-30T05:06:09;100196.50;;;1.17;78.45
66385;BME280;53426;55.872;37.462;2024-01-30T05:08:35;100221.09;;;1.35;78.58
66385;BME280;53426;55.872;37.462;2024-01-30T05:11:03;100223.94;;;1.29;78.69
66385;BME280;53426;55.872;37.462;2024-01-30T05:13:32;100131.28;;;0.69;78.94
66385;BME280;53426;55.872;37.462;2024-01-30T05:15:58;100227.25;;;1.32;78.84
66385;BME280;53426;55.872;37.462;2024-01-30T05:18:24;100198.31;;;1.15;78.58
66385;BME280;53426;55.872;37.462;2024-01-30T05:20:50;100195.66;;;1.16;78.54
66385;BME280;53426;55.872;37.462;2024-01-30T05:23:16;100188.81;;;1.14;78.63
66385;BME280;53426;55.872;37.462;2024-01-30T05:25:42;100206.22;;;1.37;78.54
66385;BME280;53426;55.872;37.462;2024-01-30T05:28:08;100178.28;;;1.15;78.54
66385;BME280;53426;55.872;37.462;2024-01-30T05:30:34;100118.75;;;0.80;77.99
66385;BME280;53426;55.872;37.462;2024-01-30T05:33:00;100075.56;;;0.48;78.37
66385;BME280;53426;55.872;37.462;2024-01-30T05:35:27;100236.06;;;1.53;78.30
66385;BME280;53426;55.872;37.462;2024-01-30T05:37:54;100164.78;;;1.04;77.79
66385;BME280;53426;55.872;37.462;2024-01-30T05:40:19;100149.91;;;0.83;78.33
66385;BME280;53426;55.872;37.462;2024-01-30T05:42:45;100207.59;;;1.23;78.17
66385;BME280;53426;55.872;37.462;2024-01-30T05:45:12;100258.63;;;1.55;78.12
66385;BME280;53426;55.872;37.462;2024-01-30T05:47:39;100254.03;;;1.62;78.18
66385;BME280;53426;55.872;37.462;2024-01-30T05:50:06;100153.78;;;0.96;77.92
66385;BME280;53426;55.872;37.462;2024-01-30T05:52:32;100218.66;;;1.30;78.00
66385;BME280;53426;55.872;37.462;2024-01-30T05:54:58;100258.50;;;1.58;78.26
66385;BME280;53426;55.872;37.462;2024-01-30T05:57:24;100182.91;;;1.09;78.20
66385;BME280;53426;55.872;37.462;2024-01-30T05:59:50;100260.03;;;1.64;78.11
66385;BME280;53426;55.872;37.462;2024-01-30T06:02:17;100241.53;;;1.47;78.24
66385;BME280;53426;55.872;37.462;2024-01-30T06:04:43;100175.00;;;1.10;77.79
66385;BME280;53426;55.872;37.462;2024-01-30T06:07:11;100243.97;;;1.51;77.99
66385;BME280;53426;55.872;37.462;2024-01-30T06:12:56;100204.84;;;1.26;77.60
66385;BME280;53426;55.872;37.462;2024-01-30T06:15:22;100123.09;;;0.79;78.00
66385;BME280;53426;55.872;37.462;2024-01-30T06:18:06;100268.13;;;1.58;78.02
66385;BME280;53426;55.872;37.462;2024-01-30T06:20:35;100290.94;;;1.76;78.12
66385;BME280;53426;55.872;37.462;2024-01-30T06:23:01;100297.84;;;1.77;77.73
66385;BME280;53426;55.872;37.462;2024-01-30T06:25:27;100306.41;;;1.81;78.15
66385;BME280;53426;55.872;37.462;2024-01-30T06:28:48;100093.69;;;0.76;77.62
66385;BME280;53426;55.872;37.462;2024-01-30T06:31:40;100014.56;;;0.29;76.92
66385;BME280;53426;55.872;37.462;2024-01-30T06:34:08;100192.66;;;1.27;77.37
66385;BME280;53426;55.872;37.462;2024-01-30T06:37:00;100291.06;;;1.96;77.69
66385;BME280;53426;55.872;37.462;2024-01-30T06:39:26;100158.28;;;1.16;77.21
66385;BME280;53426;55.872;37.462;2024-01-30T06:41:53;100179.09;;;1.17;77.32
66385;BME280;53426;55.872;37.462;2024-01-30T06:44:19;100071.94;;;0.52;77.63
66385;BME280;53426;55.872;37.462;2024-01-30T06:46:45;100294.81;;;1.89;77.63
66385;BME280;53426;55.872;37.462;2024-01-30T06:49:11;100272.09;;;1.68;77.51
66385;BME280;53426;55.872;37.462;2024-01-30T06:51:37;100291.97;;;1.95;77.38
66385;BME280;53426;55.872;37.462;2024-01-30T06:54:05;100267.25;;;1.81;77.44
66385;BME280;53426;55.872;37.462;2024-01-30T06:56:30;100296.16;;;1.99;77.00
66385;BME280;53426;55.872;37.462;2024-01-30T06:58:56;100299.63;;;2.00;77.27
66385;BME280;53426;55.872;37.462;2024-01-30T07:01:29;100278.97;;;1.94;76.96
66385;BME280;53426;55.872;37.462;2024-01-30T07:03:55;100311.50;;;2.08;77.10
66385;BME280;53426;55.872;37.462;2024-01-30T07:06:21;100299.31;;;2.07;76.88
66385;BME280;53426;55.872;37.462;2024-01-30T07:08:51;100288.34;;;1.99;77.05
66385;BME280;53426;55.872;37.462;2024-01-30T07:11:19;100302.66;;;2.13;76.64
66385;BME280;53426;55.872;37.462;2024-01-30T07:13:45;100290.78;;;2.04;76.89
66385;BME280;53426;55.872;37.462;2024-01-30T07:16:12;100263.47;;;1.89;76.60
66385;BME280;53426;55.872;37.462;2024-01-30T07:18:38;100309.28;;;2.21;76.23
66385;BME280;53426;55.872;37.462;2024-01-30T07:21:04;100294.00;;;2.10;76.30
66385;BME280;53426;55.872;37.462;2024-01-30T07:23:30;100272.66;;;1.99;76.36
66385;BME280;53426;55.872;37.462;2024-01-30T07:25:56;100288.19;;;2.02;76.62
66385;BME280;53426;55.872;37.462;2024-01-30T07:28:22;100300.88;;;2.13;76.54
66385;BME280;53426;55.872;37.462;2024-01-30T07:30:48;100317.78;;;2.26;76.39
66385;BME280;53426;55.872;37.462;2024-01-30T07:33:14;100324.69;;;2.29;76.43
66385;BME280;53426;55.872;37.462;2024-01-30T07:35:40;100325.44;;;2.31;76.19
66385;BME280;53426;55.872;37.462;2024-01-30T07:38:07;100327.78;;;2.38;75.94
66385;BME280;53426;55.872;37.462;2024-01-30T07:40:36;100279.25;;;2.09;75.78
66385;BME280;53426;55.872;37.462;2024-01-30T07:43:05;100321.81;;;2.35;75.81
66385;BME280;53426;55.872;37.462;2024-01-30T07:45:33;100292.38;;;2.30;75.51
66385;BME280;53426;55.872;37.462;2024-01-30T07:48:00;100316.06;;;2.48;75.20
66385;BME280;53426;55.872;37.462;2024-01-30T07:50:27;100317.78;;;2.49;75.54
66385;BME280;53426;55.872;37.462;2024-01-30T07:52:56;100310.16;;;2.43;75.47
66385;BME280;53426;55.872;37.462;2024-01-30T07:56:08;100319.75;;;2.66;75.48
66385;BME280;53426;55.872;37.462;2024-01-30T07:58:41;100319.97;;;2.60;74.83
66385;BME280;53426;55.872;37.462;2024-01-30T08:01:07;100325.50;;;2.52;75.06
66385;BME280;53426;55.872;37.462;2024-01-30T08:03:34;100306.88;;;2.38;75.29
66385;BME280;53426;55.872;37.462;2024-01-30T08:06:02;100301.09;;;2.30;75.52
66385;BME280;53426;55.872;37.462;2024-01-30T08:09:00;100322.19;;;2.47;75.71
66385;BME280;53426;55.872;37.462;2024-01-30T08:11:26;100293.31;;;2.29;75.37
66385;BME280;53426;55.872;37.462;2024-01-30T08:13:57;100329.94;;;2.50;75.31
66385;BME280;53426;55.872;37.462;2024-01-30T08:16:23;100328.16;;;2.51;75.35
66385;BME280;53426;55.872;37.462;2024-01-30T08:18:51;100327.00;;;2.58;75.16
66385;BME280;53426;55.872;37.462;2024-01-30T08:21:21;100329.75;;;2.55;75.13
66385;BME280;53426;55.872;37.462;2024-01-30T08:23:48;100331.75;;;2.48;75.22
66385;BME280;53426;55.872;37.462;2024-01-30T08:26:14;100345.53;;;2.52;75.17
66385;BME280;53426;55.872;37.462;2024-01-30T08:28:43;100324.28;;;2.39;75.17
66385;BME280;53426;55.872;37.462;2024-01-30T08:31:24;100283.19;;;2.20;75.36
66385;BME280;53426;55.872;37.462;2024-01-30T08:33:52;100324.72;;;2.50;75.68
66385;BME280;53426;55.872;37.462;2024-01-30T08:36:20;100328.97;;;2.53;75.53
66385;BME280;53426;55.872;37.462;2024-01-30T08:38:49;100224.97;;;1.94;75.72
66385;BME280;53426;55.872;37.462;2024-01-30T08:41:15;100327.63;;;2.65;75.55
66385;BME280;53426;55.872;37.462;2024-01-30T08:43:41;100214.53;;;1.94;75.24
66385;BME280;53426;55.872;37.462;2024-01-30T08:46:07;100262.50;;;2.37;75.08
66385;BME280;53426;55.872;37.462;2024-01-30T08:48:33;100344.66;;;2.75;74.86
66385;BME280;53426;55.872;37.462;2024-01-30T08:51:11;100333.81;;;2.62;75.26
66385;BME280;53426;55.872;37.462;2024-01-30T08:53:38;100317.69;;;2.51;75.08
66385;BME280;53426;55.872;37.462;2024-01-30T08:56:05;100212.50;;;1.79;75.30
66385;BME280;53426;55.872;37.462;2024-01-30T08:58:31;100249.22;;;1.98;75.28
66385;BME280;53426;55.872;37.462;2024-01-30T09:00:58;100334.34;;;2.72;75.14
66385;BME280;53426;55.872;37.462;2024-01-30T09:03:39;100242.63;;;2.11;75.32
66385;BME280;53426;55.872;37.462;2024-01-30T09:06:15;100292.31;;;2.55;75.12
66385;BME280;53426;55.872;37.462;2024-01-30T09:08:41;100220.31;;;2.24;74.92
66385;BME280;53426;55.872;37.462;2024-01-30T09:11:12;100257.34;;;2.57;74.42
66385;BME280;53426;55.872;37.462;2024-01-30T09:13:39;100327.00;;;3.02;74.54
66385;BME280;53426;55.872;37.462;2024-01-30T09:16:07;100330.84;;;3.15;73.92
66385;BME280;53426;55.872;37.462;2024-01-30T09:18:33;100301.09;;;2.95;74.06
66385;BME280;53426;55.872;37.462;2024-01-30T09:20:59;100304.22;;;3.05;74.13
66385;BME280;53426;55.872;37.462;2024-01-30T09:23:29;100310.97;;;3.31;73.80
66385;BME280;53426;55.872;37.462;2024-01-30T09:25:58;100312.78;;;3.29;73.71
66385;BME280;53426;55.872;37.462;2024-01-30T09:28:30;100306.91;;;3.24;73.65
66385;BME280;53426;55.872;37.462;2024-01-30T09:30:56;100286.41;;;3.13;73.19
66385;BME280;53426;55.872;37.462;2024-01-30T09:33:23;100292.25;;;3.20;73.17
66385;BME280;53426;55.872;37.462;2024-01-30T09:35:51;100330.19;;;3.30;72.93
66385;BME280;53426;55.872;37.462;2024-01-30T09:38:17;100307.94;;;3.20;73.19
66385;BME280;53426;55.872;37.462;2024-01-30T09:40:44;100313.59;;;3.31;73.14
66385;BME280;53426;55.872;37.462;2024-01-30T09:43:32;100268.41;;;3.06;73.06
66385;BME280;53426;55.872;37.462;2024-01-30T09:45:59;100311.47;;;3.19;73.53
66385;BME280;53426;55.872;37.462;2024-01-30T09:48:26;100311.47;;;3.19;73.33
66385;BME280;53426;55.872;37.462;2024-01-30T09:50:57;100259.16;;;2.77;73.61
66385;BME280;53426;55.872;37.462;2024-01-30T09:53:48;100308.72;;;3.22;73.49
66385;BME280;53426;55.872;37.462;2024-01-30T09:56:15;100235.47;;;2.60;74.15
66385;BME280;53426;55.872;37.462;2024-01-30T09:58:42;100289.34;;;3.06;73.73
66385;BME280;53426;55.872;37.462;2024-01-30T10:01:08;100309.72;;;3.19;74.15
66385;BME280;53426;55.872;37.462;2024-01-30T10:03:37;100261.19;;;2.90;73.89
66385;BME280;53426;55.872;37.462;2024-01-30T10:06:28;100271.88;;;3.06;74.29
66385;BME280;53426;55.872;37.462;2024-01-30T10:08:56;100236.09;;;3.07;73.87
66385;BME280;53426;55.872;37.462;2024-01-30T10:11:22;100192.53;;;2.85;72.57
66385;BME280;53426;55.872;37.462;2024-01-30T10:14:14;100321.31;;;3.74;72.88
66385;BME280;53426;55.872;37.462;2024-01-30T10:16:41;100215.19;;;3.27;71.49
66385;BME280;53426;55.872;37.462;2024-01-30T10:19:08;100238.53;;;3.31;71.52
66385;BME280;53426;55.872;37.462;2024-01-30T10:21:34;100310.09;;;3.71;72.14
66385;BME280;53426;55.872;37.462;2024-01-30T10:24:27;100318.38;;;3.62;72.07
66385;BME280;53426;55.872;37.462;2024-01-30T10:31:42;100234.59;;;3.01;73.26
66385;BME280;53426;55.872;37.462;2024-01-30T10:34:35;100305.13;;;3.45;73.53
66385;BME280;53426;55.872;37.462;2024-01-30T10:37:10;100303.78;;;3.56;72.94
66385;BME280;53426;55.872;37.462;2024-01-30T10:39:46;100276.66;;;3.57;72.55
66385;BME280;53426;55.872;37.462;2024-01-30T10:42:15;100299.13;;;4.02;71.99
66385;BME280;53426;55.872;37.462;2024-01-30T10:45:00;100305.66;;;4.12;71.46
66385;BME280;53426;55.872;37.462;2024-01-30T10:47:30;100308.38;;;3.90;71.77
66385;BME280;53426;55.872;37.462;2024-01-30T10:49:56;100270.69;;;3.74;72.05
66385;BME280;53426;55.872;37.462;2024-01-30T10:52:25;100272.41;;;3.94;73.44
66385;BME280;53426;55.872;37.462;2024-01-30T10:55:04;100235.72;;;3.94;75.59
66385;BME280;53426;55.872;37.462;2024-01-30T10:57:34;100226.06;;;3.57;74.49
66385;BME280;53426;55.872;37.462;2024-01-30T11:00:14;100276.72;;;3.76;74.79
66385;BME280;53426;55.872;37.462;2024-01-30T11:15:12;100323.94;;;3.54;76.78
66385;BME280;53426;55.872;37.462;2024-01-30T11:17:51;100320.53;;;3.52;77.12
66385;BME280;53426;55.872;37.462;2024-01-30T11:20:29;100324.31;;;3.45;77.40
66385;BME280;53426;55.872;37.462;2024-01-30T11:22:59;100288.31;;;3.30;77.68
66385;BME280;53426;55.872;37.462;2024-01-30T11:25:27;100262.41;;;3.24;77.93
66385;BME280;53426;55.872;37.462;2024-01-30T11:27:54;100270.72;;;3.33;78.21
66385;BME280;53426;55.872;37.462;2024-01-30T11:30:29;100333.59;;;3.72;77.81
66385;BME280;53426;55.872;37.462;2024-01-30T11:33:05;100337.69;;;3.59;77.18
66385;BME280;53426;55.872;37.462;2024-01-30T11:35:36;100190.41;;;2.53;77.00
66385;BME280;53426;55.872;37.462;2024-01-30T11:38:04;100228.66;;;2.77;76.85
66385;BME280;53426;55.872;37.462;2024-01-30T11:40:31;100235.75;;;2.74;76.22
66385;BME280;53426;55.872;37.462;2024-01-30T11:43:00;100294.72;;;3.03;76.78
66385;BME280;53426;55.872;37.462;2024-01-30T11:45:27;100226.53;;;2.65;76.63
66385;BME280;53426;55.872;37.462;2024-01-30T12:04:55;100274.00;;;2.55;75.79
66385;BME280;53426;55.872;37.462;2024-01-30T12:11:06;100366.56;;;3.16;75.88
66385;BME280;53426;55.872;37.462;2024-01-30T12:13:32;100357.63;;;3.21;75.42
66385;BME280;53426;55.872;37.462;2024-01-30T12:16:23;100350.06;;;3.14;76.07
66385;BME280;53426;55.872;37.462;2024-01-30T12:28:12;100361.41;;;2.92;75.81
66385;BME280;53426;55.872;37.462;2024-01-30T12:30:41;100292.56;;;2.70;76.41
66385;BME280;53426;55.872;37.462;2024-01-30T12:33:07;100376.63;;;3.05;76.18
66385;BME280;53426;55.872;37.462;2024-01-30T12:35:34;100203.53;;;2.08;76.34
66385;BME280;53426;55.872;37.462;2024-01-30T12:38:01;100133.84;;;1.65;75.69
66385;BME280;53426;55.872;37.462;2024-01-30T12:40:34;100295.22;;;2.47;76.13
66385;BME280;53426;55.872;37.462;2024-01-30T12:43:03;100172.91;;;1.68;75.51
66385;BME280;53426;55.872;37.462;2024-01-30T12:45:30;100355.44;;;2.89;75.89
66385;BME280;53426;55.872;37.462;2024-01-30T12:47:56;100226.28;;;2.06;76.15
66385;BME280;53426;55.872;37.462;2024-01-30T12:50:23;100298.41;;;2.55;75.49
66385;BME280;53426;55.872;37.462;2024-01-30T12:52:49;100238.75;;;1.98;75.58
66385;BME280;53426;55.872;37.462;2024-01-30T12:56:12;100269.69;;;2.32;75.92
66385;BME280;53426;55.872;37.462;2024-01-30T13:05:20;100289.34;;;2.19;75.71
66385;BME280;53426;55.872;37.462;2024-01-30T13:07:46;100282.47;;;2.16;75.97
66385;BME280;53426;55.872;37.462;2024-01-30T13:10:22;100244.88;;;1.97;75.62
66385;BME280;53426;55.872;37.462;2024-01-30T13:12:57;100233.94;;;2.10;76.31
66385;BME280;53426;55.872;37.462;2024-01-30T13:18:34;100258.56;;;2.27;75.62
66385;BME280;53426;55.872;37.462;2024-01-30T13:21:00;100309.16;;;2.69;75.86
66385;BME280;53426;55.872;37.462;2024-01-30T13:23:26;100190.03;;;1.97;75.48
66385;BME280;53426;55.872;37.462;2024-01-30T13:26:02;100338.53;;;2.76;75.44
66385;BME280;53426;55.872;37.462;2024-01-30T13:28:54;100378.91;;;3.12;75.69
66385;BME280;53426;55.872;37.462;2024-01-30T13:31:20;100208.72;;;1.86;75.72
66385;BME280;53426;55.872;37.462;2024-01-30T13:34:13;100384.47;;;3.05;75.73
66385;BME280;53426;55.872;37.462;2024-01-30T13:37:26;100382.28;;;2.94;75.36
66385;BME280;53426;55.872;37.462;2024-01-30T13:39:52;100289.97;;;2.25;75.19
66385;BME280;53426;55.872;37.462;2024-01-30T13:42:18;100255.50;;;2.16;75.65
66385;BME280;53426;55.872;37.462;2024-01-30T13:45:13;100379.72;;;2.92;75.47
66385;BME280;53426;55.872;37.462;2024-01-30T13:47:44;100316.06;;;2.48;75.56
66385;BME280;53426;55.872;37.462;2024-01-30T13:50:10;100389.69;;;2.83;75.97
66385;BME280;53426;55.872;37.462;2024-01-30T13:53:06;100372.66;;;2.94;75.71
66385;BME280;53426;55.872;37.462;2024-01-30T13:55:32;100289.78;;;2.30;75.42
66385;BME280;53426;55.872;37.462;2024-01-30T13:58:48;100384.22;;;2.89;75.74
66385;BME280;53426;55.872;37.462;2024-01-30T14:01:14;100324.81;;;2.47;75.90
66385;BME280;53426;55.872;37.462;2024-01-30T14:03:40;100372.94;;;2.65;75.52
66385;BME280;53426;55.872;37.462;2024-01-30T14:06:07;100383.69;;;2.79;75.91
66385;BME280;53426;55.872;37.462;2024-01-30T14:08:33;100293.56;;;1.99;75.94
66385;BME280;53426;55.872;37.462;2024-01-30T14:11:02;100355.09;;;2.30;76.27
66385;BME280;53426;55.872;37.462;2024-01-30T14:13:31;100388.03;;;2.57;76.58